Time;durP1;ratioP1;P1;durP2;ratioP2;P2;SDS_P1;SDS_P2;PMS_P1;PMS_P2;Temp;Humidity;BMP_temperature;BMP_pressure;BME280_temperature;BME280_humidity;BME280_pressure;Samples;Min_cycle;Max_cycle;Signal;HPM_P1;HPM_P2
2022/04/30 00:02:06;;;;;;;2.33;0.82;;;;;;;19.75;31.57;102766.94;16136389;19;129703;-52
2022/04/30 00:07:31;;;;;;;1.15;0.77;;;;;;;19.72;31.60;102778.44;16133841;19;129598;-52
2022/04/30 00:12:57;;;;;;;1.73;0.90;;;;;;;19.69;31.82;102764.97;16130931;19;129862;-47
2022/04/30 00:18:19;;;;;;;1.45;1.00;;;;;;;19.65;31.77;102764.53;16132596;19;130564;-53
2022/04/30 00:23:40;;;;;;;1.25;0.90;;;;;;;19.64;31.34;102761.97;16132769;19;130117;-50
2022/04/30 00:29:10;;;;;;;2.33;1.00;;;;;;;19.62;31.56;102762.19;16134130;19;129896;-54
2022/04/30 00:34:32;;;;;;;1.27;0.80;;;;;;;19.60;31.51;102764.31;16133325;19;130555;-51
2022/04/30 00:39:54;;;;;;;2.17;0.95;;;;;;;19.57;31.23;102761.94;16128121;19;130000;-51
2022/04/30 00:45:16;;;;;;;1.63;0.88;;;;;;;19.56;31.38;102757.47;16131108;19;129144;-51
2022/04/30 00:50:37;;;;;;;1.30;0.80;;;;;;;19.54;31.16;102751.28;16127878;19;130127;-50
2022/04/30 00:56:01;;;;;;;1.17;0.85;;;;;;;19.53;31.47;102744.00;16127536;19;129567;-52
2022/04/30 01:01:24;;;;;;;1.08;0.77;;;;;;;19.51;31.13;102744.19;16135076;19;129706;-51
2022/04/30 01:06:56;;;;;;;2.40;0.93;;;;;;;19.50;31.38;102755.50;16126444;19;129826;-47
2022/04/30 01:12:19;;;;;;;4.05;0.95;;;;;;;19.47;31.35;102745.69;16129492;19;129698;-52
2022/04/30 01:17:42;;;;;;;2.03;1.00;;;;;;;19.46;31.29;102754.22;16130878;19;129835;-52
2022/04/30 01:23:05;;;;;;;1.73;0.85;;;;;;;19.44;31.33;102745.25;16130590;19;131141;-50
2022/04/30 01:28:28;;;;;;;1.58;1.05;;;;;;;19.42;30.87;102750.16;16129991;19;130700;-50
2022/04/30 01:39:42;;;;;;;1.42;0.80;;;;;;;19.37;31.15;102753.56;16144728;19;130330;-52
2022/04/30 01:45:05;;;;;;;2.25;0.90;;;;;;;19.38;30.91;102752.50;16142153;19;130806;-52
2022/04/30 01:50:27;;;;;;;1.38;0.88;;;;;;;19.35;31.10;102745.41;16144245;19;129875;-52
2022/04/30 01:55:59;;;;;;;1.02;0.90;;;;;;;19.34;30.90;102751.19;16139021;19;134353;-50
2022/04/30 02:01:21;;;;;;;2.90;0.90;;;;;;;19.32;31.13;102747.75;16142427;19;129889;-49
2022/04/30 02:06:44;;;;;;;1.80;0.80;;;;;;;19.30;30.64;102744.31;16136900;19;131664;-53
2022/04/30 02:12:07;;;;;;;1.42;0.70;;;;;;;19.29;30.93;102745.38;16139558;19;130391;-51
2022/04/30 02:17:29;;;;;;;1.27;0.75;;;;;;;19.27;30.61;102736.41;16139949;19;130677;-51
2022/04/30 02:22:54;;;;;;;2.20;0.70;;;;;;;19.25;30.94;102733.84;16138909;19;130172;-47
2022/04/30 02:28:16;;;;;;;0.83;0.70;;;;;;;19.24;30.79;102740.47;16139686;19;129514;-53
2022/04/30 02:33:39;;;;;;;1.15;0.70;;;;;;;19.22;30.59;102737.91;16137833;19;131585;-49
2022/04/30 02:39:01;;;;;;;1.23;0.63;;;;;;;19.21;30.65;102740.88;16139841;19;130594;-52
2022/04/30 02:44:26;;;;;;;2.22;0.90;;;;;;;19.20;30.45;102739.16;16135668;19;129499;-51
2022/04/30 02:49:48;;;;;;;1.53;0.63;;;;;;;19.18;30.89;102735.72;16138664;19;131579;-53
2022/04/30 02:55:11;;;;;;;1.63;0.80;;;;;;;19.17;30.74;102739.56;16141125;19;129128;-54
2022/04/30 03:00:37;;;;;;;1.02;0.60;;;;;;;19.16;30.91;102732.28;16147468;19;129356;-50
2022/04/30 03:06:00;;;;;;;2.80;0.70;;;;;;;19.16;30.83;102726.75;16137657;19;129844;-53
2022/04/30 03:11:22;;;;;;;1.90;0.70;;;;;;;19.16;30.71;102726.75;16139063;19;130330;-51
2022/04/30 03:22:26;;;;;;;2.30;1.10;;;;;;;19.12;30.46;102722.66;16137457;19;129832;-53
2022/04/30 03:27:48;;;;;;;2.25;0.70;;;;;;;19.11;30.53;102713.50;16132025;19;129703;-54
2022/04/30 03:33:11;;;;;;;0.90;0.60;;;;;;;19.10;30.51;102717.31;16135912;19;130332;-52
2022/04/30 03:38:33;;;;;;;1.27;0.63;;;;;;;19.10;30.41;102727.53;16137769;19;129772;-50
2022/04/30 03:43:55;;;;;;;1.00;0.63;;;;;;;19.08;30.39;102720.28;16136611;19;129611;-52
2022/04/30 03:49:27;;;;;;;1.77;0.88;;;;;;;19.07;30.72;102710.28;16134492;19;129347;-51
2022/04/30 03:54:48;;;;;;;1.40;0.80;;;;;;;19.05;30.53;102712.41;16134155;19;130061;-48
2022/04/30 04:00:11;;;;;;;1.20;0.70;;;;;;;19.04;30.39;102719.00;16131764;19;130134;-50
2022/04/30 04:05:33;;;;;;;0.93;0.80;;;;;;;19.02;30.82;102710.03;16132178;19;130461;-47
2022/04/30 04:10:55;;;;;;;1.90;0.70;;;;;;;19.03;30.49;102714.50;16135332;19;129259;-50
2022/04/30 04:21:57;;;;;;;1.02;0.75;;;;;;;19.00;30.64;102728.78;16134363;19;129431;-61
2022/04/30 04:27:26;;;;;;;1.10;0.80;;;;;;;18.99;30.37;102723.44;16130610;19;130368;-60
2022/04/30 04:32:50;;;;;;;0.85;0.77;;;;;;;18.98;30.44;102728.13;16131628;19;129599;-51
2022/04/30 04:38:12;;;;;;;1.45;0.80;;;;;;;18.97;30.63;102733.91;16133236;19;130112;-51
2022/04/30 04:43:34;;;;;;;1.08;0.70;;;;;;;18.95;30.28;102736.88;16133683;19;129607;-51
2022/04/30 04:48:55;;;;;;;2.25;1.10;;;;;;;18.93;30.46;102736.22;16135214;19;129777;-46
2022/04/30 04:54:17;;;;;;;1.13;0.68;;;;;;;18.92;30.54;102737.28;16134244;19;130871;-50
2022/04/30 04:59:39;;;;;;;3.20;0.70;;;;;;;18.90;30.76;102744.94;16129545;19;129775;-48
2022/04/30 05:05:02;;;;;;;2.50;0.65;;;;;;;18.89;30.58;102754.31;16130182;19;130635;-48
2022/04/30 05:10:24;;;;;;;2.63;1.00;;;;;;;18.88;30.51;102755.38;16130447;19;130390;-59
2022/04/30 05:15:45;;;;;;;2.33;1.05;;;;;;;18.87;30.34;102750.88;16128179;19;129597;-56
2022/04/30 05:21:08;;;;;;;4.28;0.80;;;;;;;18.86;30.48;102754.72;16130535;19;129335;-56
2022/04/30 05:26:29;;;;;;;2.50;0.85;;;;;;;18.89;30.66;102759.88;16128745;19;129686;-47
2022/04/30 05:31:51;;;;;;;2.75;0.93;;;;;;;18.98;30.30;102752.25;16129324;19;129400;-49
2022/04/30 05:37:13;;;;;;;2.70;1.10;;;;;;;19.02;30.29;102765.50;16125365;19;131717;-50
2022/04/30 05:42:35;;;;;;;1.40;0.80;;;;;;;19.16;30.62;102766.41;16128500;19;131256;-48
2022/04/30 05:47:57;;;;;;;4.88;1.10;;;;;;;19.49;30.40;102767.69;16123826;19;130165;-48
2022/04/30 05:53:18;;;;;;;1.77;0.90;;;;;;;19.97;29.72;102767.59;16129032;19;129283;-48
2022/04/30 05:58:40;;;;;;;4.18;1.38;;;;;;;20.41;29.51;102759.78;16128825;19;130021;-48
2022/04/30 06:04:02;;;;;;;2.20;0.90;;;;;;;20.71;29.04;102764.91;16127620;19;130241;-51
2022/04/30 06:09:25;;;;;;;1.45;0.68;;;;;;;20.88;28.93;102772.81;16127654;19;129413;-46
2022/04/30 06:14:46;;;;;;;3.13;1.10;;;;;;;20.96;28.59;102774.50;16124841;19;130822;-52
2022/04/30 06:20:09;;;;;;;3.88;1.42;;;;;;;20.94;29.01;102776.66;16144054;19;129441;-51
2022/04/30 06:25:31;;;;;;;5.13;1.20;;;;;;;20.85;29.38;102781.59;16141987;19;130315;-50
2022/04/30 06:30:53;;;;;;;3.22;1.27;;;;;;;20.79;29.17;102782.44;16137044;19;129730;-54
2022/04/30 06:36:14;;;;;;;2.47;0.80;;;;;;;20.75;29.63;102787.56;16140462;19;130012;-55
2022/04/30 06:41:36;;;;;;;3.78;1.10;;;;;;;20.70;29.99;102788.22;16141625;19;129665;-52
2022/04/30 06:46:58;;;;;;;3.53;1.05;;;;;;;20.63;30.54;102784.56;16138562;19;129583;-47
2022/04/30 06:52:20;;;;;;;4.05;1.33;;;;;;;20.54;30.70;102775.63;16140786;19;129671;-51
2022/04/30 06:57:43;;;;;;;4.95;1.58;;;;;;;20.48;30.35;102784.78;16140005;19;130303;-53
2022/04/30 07:03:08;;;;;;;2.47;1.20;;;;;;;20.48;30.66;102783.94;16136374;19;130782;-53
2022/04/30 07:08:32;;;;;;;2.85;1.20;;;;;;;20.42;30.76;102788.44;16135290;19;129369;-54
2022/04/30 07:13:54;;;;;;;2.88;1.30;;;;;;;20.35;30.93;102791.22;16137403;19;130965;-52
2022/04/30 07:19:15;;;;;;;2.22;1.55;;;;;;;20.32;30.88;102785.19;16139588;19;130285;-55
2022/04/30 07:24:37;;;;;;;4.20;0.90;;;;;;;20.22;30.54;102786.47;16138267;19;130466;-53
2022/04/30 07:29:59;;;;;;;4.88;1.17;;;;;;;20.16;30.70;102790.13;16137307;19;130296;-54
2022/04/30 07:35:21;;;;;;;3.28;1.00;;;;;;;20.10;30.74;102782.63;16139488;19;129441;-55
2022/04/30 07:40:42;;;;;;;2.03;1.20;;;;;;;20.17;30.50;102788.19;16144074;19;130517;-55
2022/04/30 07:46:04;;;;;;;1.63;0.93;;;;;;;20.35;30.28;102787.56;16139935;19;129715;-53
2022/04/30 07:51:38;;;;;;;2.80;1.00;;;;;;;20.59;30.19;102783.31;16141909;19;129492;-54
2022/04/30 07:57:00;;;;;;;4.80;1.20;;;;;;;20.84;30.02;102783.50;16142437;19;129425;-54
2022/04/30 08:02:22;;;;;;;5.15;1.10;;;;;;;21.14;29.43;102791.38;16136408;19;129775;-55
2022/04/30 08:07:44;;;;;;;3.80;1.17;;;;;;;21.29;29.61;102787.50;16134449;19;129485;-54
2022/04/30 08:13:06;;;;;;;3.28;1.13;;;;;;;21.44;29.17;102790.00;16139929;19;129904;-54
2022/04/30 08:18:28;;;;;;;3.00;1.27;;;;;;;21.52;29.28;102784.19;16137446;19;129286;-54
2022/04/30 08:23:50;;;;;;;3.83;1.00;;;;;;;21.59;29.32;102786.97;16139491;19;130313;-56
2022/04/30 08:29:11;;;;;;;5.03;0.98;;;;;;;21.65;29.59;102783.31;16133488;19;129858;-53
2022/04/30 08:34:33;;;;;;;5.72;1.08;;;;;;;21.64;29.38;102782.44;16136274;19;130404;-54
2022/04/30 08:39:55;;;;;;;7.57;1.20;;;;;;;21.61;30.03;102779.25;16136408;19;132686;-53
2022/04/30 08:45:21;;;;;;;13.65;1.50;;;;;;;21.56;30.85;102771.56;16132697;19;130367;-53
2022/04/30 08:50:45;;;;;;;16.05;1.80;;;;;;;21.54;30.45;102764.50;16124795;19;131174;-52
2022/04/30 08:56:08;;;;;;;10.30;1.13;;;;;;;21.51;30.87;102760.22;16134565;19;130615;-55
2022/04/30 09:01:30;;;;;;;23.42;1.67;;;;;;;21.51;31.19;102761.09;16137033;19;128892;-54
2022/04/30 09:06:55;;;;;;;11.68;1.45;;;;;;;21.38;31.29;102752.75;16129457;19;129462;-55
2022/04/30 09:12:17;;;;;;;6.63;1.30;;;;;;;21.23;31.21;102755.81;16131899;19;129436;-56
2022/04/30 09:17:38;;;;;;;7.50;2.00;;;;;;;21.10;31.10;102751.13;16132552;19;129529;-52
2022/04/30 09:23:00;;;;;;;7.75;1.83;;;;;;;20.96;30.74;102746.69;16135376;19;129446;-57
2022/04/30 09:28:30;;;;;;;4.97;1.40;;;;;;;20.86;31.16;102733.25;16131172;19;129348;-52
2022/04/30 09:33:55;;;;;;;7.20;1.80;;;;;;;20.76;31.64;102736.47;16131842;19;130293;-57
2022/04/30 09:39:18;;;;;;;5.57;1.65;;;;;;;20.69;31.33;102730.00;16133955;19;129573;-57
2022/04/30 09:44:40;;;;;;;43.42;26.55;;;;;;;20.65;32.53;102731.53;16126189;19;128967;-53
2022/04/30 09:55:53;;;;;;;119.15;58.83;;;;;;;20.69;34.58;102724.44;16146937;19;129713;-50
2022/04/30 10:01:15;;;;;;;195.38;88.28;;;;;;;20.69;35.77;102724.44;16146233;19;129529;-57
2022/04/30 10:06:41;;;;;;;159.98;75.68;;;;;;;20.73;35.67;102717.38;16142521;19;129327;-56
2022/04/30 10:12:26;;;;;;;137.25;66.50;;;;;;;20.72;36.41;102708.22;16145094;19;129281;-58
2022/04/30 10:17:54;;;;;;;144.63;74.47;;;;;;;20.71;37.29;102711.19;16141052;19;130279;-58
2022/04/30 10:23:17;;;;;;;151.02;79.22;;;;;;;20.72;37.69;102704.56;16141890;19;129822;-58
2022/04/30 10:28:39;;;;;;;93.88;46.05;;;;;;;20.73;36.98;102706.25;16142307;19;129387;-58
2022/04/30 10:34:03;;;;;;;67.87;33.47;;;;;;;20.71;35.99;102700.06;16141464;19;129510;-58
2022/04/30 10:39:25;;;;;;;50.47;26.17;;;;;;;20.67;35.62;102704.38;16144409;19;129936;-57
2022/04/30 10:44:54;;;;;;;58.03;28.83;;;;;;;20.66;36.17;102703.50;16144262;19;130052;-58
2022/04/30 10:50:16;;;;;;;57.75;26.25;;;;;;;20.70;36.40;102695.56;16144766;19;130113;-57
2022/04/30 10:55:39;;;;;;;51.40;23.38;;;;;;;20.77;36.24;102690.03;16141710;19;130647;-58
2022/04/30 11:01:18;;;;;;;60.75;21.92;;;;;;;20.79;37.08;102669.28;16141833;19;130561;-58
2022/04/30 11:06:41;;;;;;;61.35;22.55;;;;;;;20.80;36.58;102673.75;16137219;19;130093;-58
2022/04/30 11:12:03;;;;;;;86.57;33.92;;;;;;;20.81;37.01;102663.50;16145117;19;130667;-58
2022/04/30 11:17:26;;;;;;;77.68;22.77;;;;;;;20.82;37.23;102657.69;16141298;19;129972;-58
2022/04/30 11:22:55;;;;;;;66.30;24.17;;;;;;;20.87;36.91;102654.25;16139352;19;130473;-58
2022/04/30 11:28:17;;;;;;;82.13;37.22;;;;;;;20.88;37.51;102645.72;16136925;19;129855;-58
2022/04/30 11:33:40;;;;;;;66.20;28.77;;;;;;;20.86;37.57;102635.88;16142362;19;128899;-57
2022/04/30 11:39:02;;;;;;;64.82;30.15;;;;;;;20.84;37.43;102633.31;16142370;19;129033;-58
2022/04/30 11:44:26;;;;;;;68.20;32.25;;;;;;;20.81;37.35;102630.94;16140768;19;129949;-58
2022/04/30 11:49:47;;;;;;;51.58;23.67;;;;;;;20.78;37.54;102628.63;16131613;19;131005;-58
2022/04/30 11:55:10;;;;;;;58.55;20.48;;;;;;;20.76;37.40;102630.78;16142935;19;129684;-58
2022/04/30 12:00:35;;;;;;;58.92;18.48;;;;;;;20.76;37.41;102630.78;16141663;19;129703;-58
2022/04/30 12:05:57;;;;;;;45.90;16.10;;;;;;;20.74;37.00;102627.31;16140402;19;130953;-58
2022/04/30 12:11:19;;;;;;;36.20;14.10;;;;;;;20.75;36.37;102620.69;16141310;19;130340;-58
2022/04/30 12:16:42;;;;;;;33.03;11.80;;;;;;;20.72;36.08;102615.56;16134481;19;129858;-57
2022/04/30 12:28:02;;;;;;;24.00;7.95;;;;;;;20.66;35.83;102588.63;16135180;19;129648;-59
2022/04/30 12:33:48;;;;;;;18.83;7.50;;;;;;;20.68;35.96;102587.34;16134166;19;130855;-59
2022/04/30 12:39:16;;;;;;;27.48;8.63;;;;;;;20.66;36.53;102585.84;16138197;19;130090;-59
2022/04/30 12:44:38;;;;;;;33.53;16.45;;;;;;;20.64;36.94;102583.28;16132745;19;129390;-59
2022/04/30 12:50:00;;;;;;;24.58;10.02;;;;;;;20.66;37.44;102571.94;16134200;19;129289;-58
2022/04/30 12:55:22;;;;;;;23.52;9.75;;;;;;;20.67;37.25;102570.88;16138597;19;130000;-58
2022/04/30 13:00:45;;;;;;;54.00;31.20;;;;;;;20.60;37.65;102571.75;16136231;19;130262;-59
2022/04/30 13:06:07;;;;;;;25.58;13.60;;;;;;;20.55;36.31;102582.69;16129854;19;129767;-57
2022/04/30 13:17:09;;;;;;;20.50;9.15;;;;;;;20.50;35.99;102570.50;16134942;19;129317;-58
2022/04/30 13:22:38;;;;;;;16.98;6.88;;;;;;;20.50;35.40;102564.94;16137163;19;129519;-58
2022/04/30 13:28:00;;;;;;;15.95;7.03;;;;;;;20.47;35.32;102568.16;16144148;19;132228;-58
2022/04/30 13:33:22;;;;;;;13.50;5.90;;;;;;;20.50;35.29;102565.81;16150650;19;129808;-58
2022/04/30 13:38:45;;;;;;;11.35;5.50;;;;;;;20.50;35.28;102559.38;16145132;19;129169;-58
2022/04/30 13:44:09;;;;;;;15.68;6.90;;;;;;;20.54;35.18;102561.53;16148734;19;129443;-58
2022/04/30 13:49:31;;;;;;;19.77;6.70;;;;;;;20.59;34.85;102558.06;16147453;19;129379;-58
2022/04/30 13:54:53;;;;;;;16.58;6.47;;;;;;;20.62;34.95;102554.00;16149738;19;129273;-56
2022/04/30 14:00:20;;;;;;;14.07;6.93;;;;;;;20.61;35.16;102555.94;16137292;19;129846;-56
2022/04/30 14:05:42;;;;;;;16.30;6.38;;;;;;;20.58;35.18;102545.25;16136331;19;130993;-56
2022/04/30 14:11:04;;;;;;;14.10;5.40;;;;;;;20.55;35.56;102541.00;16138699;19;131143;-55
2022/04/30 14:16:26;;;;;;;13.35;4.78;;;;;;;20.53;35.12;102537.56;16132709;19;129974;-52
2022/04/30 14:21:48;;;;;;;6.55;3.67;;;;;;;20.50;35.31;102540.78;16144064;19;131401;-55
2022/04/30 14:27:09;;;;;;;8.50;3.40;;;;;;;20.49;35.13;102536.28;16139128;19;130329;-54
2022/04/30 14:32:31;;;;;;;7.78;3.58;;;;;;;20.50;35.13;102531.56;16140374;19;130637;-52
2022/04/30 14:37:53;;;;;;;8.23;2.90;;;;;;;20.48;35.17;102526.25;16146159;19;129465;-53
2022/04/30 14:43:15;;;;;;;7.03;3.17;;;;;;;20.45;34.52;102512.78;16141865;19;128983;-55
2022/04/30 14:48:36;;;;;;;6.45;3.10;;;;;;;20.41;34.62;102514.31;16144248;19;129096;-54
2022/04/30 14:53:59;;;;;;;5.60;2.78;;;;;;;20.41;34.30;102508.75;16143899;19;128964;-56
2022/04/30 14:59:21;;;;;;;5.38;2.35;;;;;;;20.39;34.27;102505.34;16143010;19;129556;-49
2022/04/30 15:04:43;;;;;;;6.75;2.65;;;;;;;20.39;33.96;102494.22;16145627;19;129319;-50
2022/04/30 15:10:05;;;;;;;3.25;2.10;;;;;;;20.37;34.41;102494.41;16140386;19;129598;-51
2022/04/30 15:15:27;;;;;;;3.70;1.92;;;;;;;20.37;34.00;102490.78;16136961;19;131005;-49
2022/04/30 15:20:49;;;;;;;3.60;2.20;;;;;;;20.34;34.11;102485.66;16139211;19;129701;-54
2022/04/30 15:26:11;;;;;;;4.28;1.75;;;;;;;20.33;33.81;102487.59;16138958;19;129578;-56
2022/04/30 15:31:32;;;;;;;4.95;1.98;;;;;;;20.30;33.70;102485.25;16140564;19;129709;-56
2022/04/30 15:36:54;;;;;;;3.78;1.73;;;;;;;20.20;33.81;102477.38;16130640;19;130092;-57
2022/04/30 15:42:16;;;;;;;6.43;1.80;;;;;;;20.13;33.33;102476.56;16128451;19;133817;-57
2022/04/30 15:53:47;;;;;;;4.30;1.55;;;;;;;20.40;32.49;102477.31;16144284;19;130657;-56
2022/04/30 15:59:00;;;;;;;8.65;1.60;;;;;;;20.72;32.07;102468.16;16139836;19;130282;-56
2022/04/30 16:04:22;;;;;;;6.57;1.30;;;;;;;20.98;31.25;102469.97;16140369;19;130175;-53
2022/04/30 16:09:43;;;;;;;3.63;1.45;;;;;;;21.16;30.91;102471.97;16133326;19;130317;-54
2022/04/30 16:15:07;;;;;;;3.80;1.20;;;;;;;21.26;31.11;102462.25;16130898;19;131679;-57
2022/04/30 16:20:28;;;;;;;3.10;1.05;;;;;;;21.25;30.79;102461.38;16139513;19;131018;-55
2022/04/30 16:25:51;;;;;;;5.45;1.30;;;;;;;21.17;30.73;102459.72;16140390;19;129798;-55
2022/04/30 16:31:13;;;;;;;3.97;1.45;;;;;;;21.06;30.67;102463.25;16135347;19;130909;-57
2022/04/30 16:36:35;;;;;;;5.13;1.33;;;;;;;20.95;30.57;102461.19;16135303;19;130266;-55
2022/04/30 16:41:57;;;;;;;2.80;1.30;;;;;;;20.86;30.50;102453.13;16138411;19;129968;-55
2022/04/30 16:47:18;;;;;;;2.15;0.85;;;;;;;20.79;31.05;102448.69;16138626;19;128957;-57
2022/04/30 16:52:40;;;;;;;2.83;1.40;;;;;;;20.68;30.63;102444.63;16134317;19;129463;-56
2022/04/30 16:58:03;;;;;;;2.72;1.02;;;;;;;20.53;30.56;102445.81;16131633;19;130383;-56
2022/04/30 17:03:24;;;;;;;11.45;5.55;;;;;;;20.49;30.89;102444.53;16126672;19;131671;-50
2022/04/30 17:08:46;;;;;;;7.70;4.32;;;;;;;20.62;30.99;102442.75;16134903;19;129544;-53
2022/04/30 17:14:08;;;;;;;4.88;3.25;;;;;;;20.87;31.08;102443.72;16133267;19;130022;-55
2022/04/30 17:19:30;;;;;;;5.47;3.38;;;;;;;21.19;31.09;102435.31;16133321;19;130349;-50
2022/04/30 17:24:52;;;;;;;4.63;2.80;;;;;;;21.47;30.68;102436.78;16132298;19;129666;-50
2022/04/30 17:30:15;;;;;;;4.60;2.67;;;;;;;21.69;30.46;102432.75;16127649;19;131065;-54
2022/04/30 17:41:17;;;;;;;4.32;2.78;;;;;;;22.02;30.55;102437.94;16134892;19;130376;-49
2022/04/30 17:46:39;;;;;;;6.32;5.32;;;;;;;22.14;30.60;102426.84;16134232;19;129294;-52
2022/04/30 17:52:03;;;;;;;7.90;4.38;;;;;;;22.26;30.22;102438.13;16132762;19;130756;-54
2022/04/30 17:57:25;;;;;;;5.20;3.47;;;;;;;22.37;30.03;102445.69;16132163;19;129037;-55
2022/04/30 18:02:47;;;;;;;3.65;2.90;;;;;;;22.46;30.06;102448.13;16130745;19;129500;-54
2022/04/30 18:08:09;;;;;;;6.03;2.72;;;;;;;22.53;29.78;102457.25;16127204;19;130856;-51
2022/04/30 18:13:34;;;;;;;6.00;2.10;;;;;;;22.62;30.21;102458.63;16132193;19;130308;-53
2022/04/30 18:18:56;;;;;;;6.70;2.50;;;;;;;22.68;30.50;102445.69;16140612;19;129239;-52
2022/04/30 18:24:18;;;;;;;10.95;9.20;;;;;;;22.65;30.27;102443.34;16143444;19;129926;-54
2022/04/30 18:29:40;;;;;;;17.50;9.70;;;;;;;22.57;30.20;102439.81;16132699;19;129611;-52
2022/04/30 18:35:03;;;;;;;12.32;7.88;;;;;;;22.50;30.64;102444.63;16138911;19;130419;-55
2022/04/30 18:40:25;;;;;;;12.95;6.68;;;;;;;22.43;30.70;102443.88;16141265;19;129277;-54
2022/04/30 18:45:48;;;;;;;7.65;5.15;;;;;;;22.35;30.20;102447.84;16133823;19;130921;-55
2022/04/30 18:51:10;;;;;;;8.52;4.30;;;;;;;22.32;30.54;102441.91;16133730;19;129310;-54
2022/04/30 19:02:13;;;;;;;4.97;3.10;;;;;;;22.14;30.96;102451.94;16140483;19;129761;-49
2022/04/30 19:07:36;;;;;;;3.25;2.45;;;;;;;22.04;30.96;102458.06;16143004;19;130562;-55
2022/04/30 19:12:58;;;;;;;8.05;2.88;;;;;;;21.92;31.03;102460.78;16140299;19;129241;-51
2022/04/30 19:18:20;;;;;;;7.50;2.45;;;;;;;21.75;30.29;102459.66;16139144;19;129985;-53
2022/04/30 19:23:42;;;;;;;6.18;2.08;;;;;;;21.64;30.30;102466.88;16139731;19;129480;-55
2022/04/30 19:29:12;;;;;;;5.53;1.70;;;;;;;21.56;30.77;102456.88;16134117;19;130156;-54
2022/04/30 19:34:33;;;;;;;4.72;1.70;;;;;;;21.59;30.39;102461.13;16135858;19;130945;-53
2022/04/30 19:39:55;;;;;;;5.75;1.50;;;;;;;21.61;30.60;102464.53;16136051;19;129551;-56
2022/04/30 19:45:18;;;;;;;3.00;1.13;;;;;;;21.61;30.47;102459.81;16135928;19;130059;-52
2022/04/30 19:50:41;;;;;;;13.23;1.50;;;;;;;21.56;30.69;102461.56;16133879;19;129876;-54
2022/04/30 19:56:03;;;;;;;2.03;1.45;;;;;;;21.60;30.94;102466.44;16136515;19;129367;-54
2022/04/30 20:01:24;;;;;;;2.58;1.33;;;;;;;21.70;30.85;102468.72;16135992;19;130258;-55
2022/04/30 20:06:46;;;;;;;4.57;1.30;;;;;;;21.77;30.88;102461.16;16137121;19;130788;-55
2022/04/30 20:17:49;;;;;;;2.33;1.00;;;;;;;22.03;30.48;102450.78;16132372;19;130751;-55
2022/04/30 20:23:11;;;;;;;3.95;1.02;;;;;;;22.09;30.69;102454.59;16131629;19;130211;-52
2022/04/30 20:28:33;;;;;;;4.95;0.93;;;;;;;22.07;30.57;102459.53;16131597;19;129227;-55
2022/04/30 20:39:38;;;;;;;2.72;0.85;;;;;;;21.96;30.92;102456.44;16122020;19;131199;-57
2022/04/30 20:45:00;;;;;;;2.53;1.00;;;;;;;21.87;31.12;102462.56;16124138;19;130133;-55
2022/04/30 20:50:22;;;;;;;3.55;1.40;;;;;;;21.76;31.17;102465.03;16128534;19;129343;-53
2022/04/30 20:55:44;;;;;;;11.10;1.98;;;;;;;21.65;31.05;102465.78;16133092;19;130246;-56
2022/04/30 21:01:05;;;;;;;5.30;1.50;;;;;;;21.52;31.43;102461.19;16130929;19;129894;-54
2022/04/30 21:06:28;;;;;;;7.15;1.95;;;;;;;21.45;31.50;102471.50;16133467;19;129949;-58
2022/04/30 21:11:50;;;;;;;7.65;1.77;;;;;;;21.35;31.66;102458.09;16121791;19;129651;-59
2022/04/30 21:17:11;;;;;;;6.70;1.77;;;;;;;21.27;31.79;102461.19;16125607;19;130769;-58
2022/04/30 21:22:36;;;;;;;5.10;1.60;;;;;;;21.19;31.85;102468.72;16124637;19;130850;-52
2022/04/30 21:28:05;;;;;;;5.10;1.60;;;;;;;21.12;31.75;102453.13;16122972;19;130864;-57
2022/04/30 21:33:27;;;;;;;4.10;1.70;;;;;;;21.08;32.10;102449.97;16120661;19;131057;-57
2022/04/30 21:38:48;;;;;;;5.78;1.88;;;;;;;21.01;31.76;102449.19;16121223;19;130673;-59
2022/04/30 21:44:12;;;;;;;7.50;2.00;;;;;;;20.95;32.21;102450.94;16128632;19;130685;-60
2022/04/30 21:49:34;;;;;;;7.75;1.92;;;;;;;20.92;31.68;102444.97;16135974;19;129744;-60
2022/04/30 22:01:12;;;;;;;10.55;1.88;;;;;;;20.80;32.71;102448.44;16147094;19;130304;-58
2022/04/30 22:06:36;;;;;;;13.30;1.98;;;;;;;20.82;32.48;102449.06;16146873;19;129858;-57
2022/04/30 22:11:57;;;;;;;4.88;1.67;;;;;;;20.83;32.11;102448.00;16146739;19;129920;-54
2022/04/30 22:17:19;;;;;;;9.43;1.92;;;;;;;20.85;32.21;102445.00;16151407;19;129699;-56
2022/04/30 22:22:41;;;;;;;6.50;1.63;;;;;;;20.83;32.79;102448.00;16148621;19;130697;-56
2022/04/30 22:28:03;;;;;;;3.67;1.40;;;;;;;20.80;32.71;102442.88;16148901;19;129673;-57
2022/04/30 22:33:26;;;;;;;10.38;1.90;;;;;;;20.80;33.36;102442.88;16146560;19;129503;-56
2022/04/30 22:38:48;;;;;;;5.80;1.80;;;;;;;20.79;33.06;102441.22;16151389;19;129184;-53
2022/04/30 22:44:10;;;;;;;7.95;1.50;;;;;;;20.78;33.27;102436.72;16142290;19;129070;-57
2022/04/30 22:49:32;;;;;;;5.45;1.48;;;;;;;20.77;33.54;102437.78;16146769;19;129790;-53
2022/04/30 22:54:54;;;;;;;4.80;1.33;;;;;;;20.76;33.43;102447.22;16146976;19;129941;-56
2022/04/30 23:00:16;;;;;;;9.93;1.77;;;;;;;20.69;33.51;102451.91;16145460;19;130053;-57
2022/04/30 23:05:38;;;;;;;10.43;1.67;;;;;;;20.63;33.61;102450.88;16148448;19;129316;-57
2022/04/30 23:11:00;;;;;;;6.75;1.40;;;;;;;20.56;33.84;102442.56;16144209;19;129493;-57
2022/04/30 23:16:22;;;;;;;6.53;1.58;;;;;;;20.52;33.87;102438.56;16143426;19;131409;-55
2022/04/30 23:21:44;;;;;;;5.18;1.42;;;;;;;20.48;34.30;102433.66;16138910;19;129658;-59
2022/04/30 23:27:06;;;;;;;4.63;1.30;;;;;;;20.44;34.01;102439.66;16152831;19;130085;-58
2022/04/30 23:32:28;;;;;;;2.22;1.00;;;;;;;20.43;33.87;102431.56;16145651;19;129745;-57
2022/04/30 23:37:50;;;;;;;3.13;1.00;;;;;;;20.39;33.89;102436.69;16153426;19;130124;-58
2022/04/30 23:43:12;;;;;;;3.95;1.38;;;;;;;20.36;34.01;102441.84;16150295;19;128909;-57
2022/04/30 23:48:34;;;;;;;3.15;1.10;;;;;;;20.32;34.32;102441.44;16149655;19;130257;-55
2022/04/30 23:53:59;;;;;;;7.20;1.38;;;;;;;20.31;34.28;102428.59;16148401;19;130597;-57
2022/04/30 23:59:21;;;;;;;1.73;1.10;;;;;;;20.26;34.08;102428.41;16150752;19;129727;-58
